Terminal Aerodrome Forecast
Issued by NWS Albany, NY

Home | Current Version | Previous Version | Text Only | Print | Product List | Glossary On
Versions: 1 2 3 4 5 6 7 8 9 10 11 12 13 14 15 16 17 18 19 20 21 22 23 24 25 26 27 28 29 30 31 32 33 34 35 36 37 38 39 40 41 42 43 44 45 46 47 48 49 50
008
FTUS41 KALY 190806 AAA
TAFPOU
TAF AMD
KPOU 190806Z 1908/2006 VRB03KT 6SM BR SCT035
      TEMPO 1908/1912 3SM BR BKN008
     FM191200 18004KT 6SM BR BKN008
     FM191600 21006KT P6SM SCT050 PROB30 1918/1923 VRB15G30KT 2SM
      +TSRA BR BKN025CB
     FM192300 25005KT P6SM VCSH BKN060
     FM200200 VRB03KT 6SM BR SCT080=

USA.gov is the U.S. government's official web portal to all federal, state and local government web resources and services.